Time;durP1;ratioP1;P1;durP2;ratioP2;P2;SDS_P1;SDS_P2;PMS_P1;PMS_P2;Temp;Humidity;BMP_temperature;BMP_pressure;BME280_temperature;BME280_humidity;BME280_pressure;Samples;Min_cycle;Max_cycle;Signal;HPM_P1;HPM_P2
2021/09/28 00:02:17;;;;;;;1.20;1.00;;;17.20;99.90;;;;;;5053580;28;20429;-56
2021/09/28 00:04:43;;;;;;;1.10;0.83;;;17.10;99.90;;;;;;5053734;28;20163;-56
2021/09/28 00:07:09;;;;;;;1.00;0.90;;;17.00;99.90;;;;;;5053406;28;20251;-57
2021/09/28 00:09:34;;;;;;;2.10;1.00;;;17.10;99.90;;;;;;5053322;28;20242;-57
2021/09/28 00:12:00;;;;;;;1.90;1.03;;;17.10;99.90;;;;;;5052093;28;20171;-55
2021/09/28 00:14:26;;;;;;;0.90;0.70;;;17.10;99.90;;;;;;5053655;28;20166;-57
2021/09/28 00:16:51;;;;;;;1.80;1.07;;;17.00;99.90;;;;;;5052764;28;20697;-54
2021/09/28 00:19:17;;;;;;;2.13;1.10;;;16.90;99.90;;;;;;5045127;28;20172;-58
2021/09/28 00:21:43;;;;;;;0.83;0.70;;;16.90;99.90;;;;;;5024374;28;20190;-58
2021/09/28 00:24:10;;;;;;;1.73;1.00;;;16.90;99.90;;;;;;5033388;28;20179;-59
2021/09/28 00:26:36;;;;;;;1.17;0.80;;;16.90;99.90;;;;;;5033589;28;20464;-57
2021/09/28 00:29:02;;;;;;;1.13;0.70;;;16.90;99.90;;;;;;5033268;28;20948;-57
2021/09/28 00:31:28;;;;;;;0.90;0.70;;;16.80;99.90;;;;;;5048908;28;20934;-57
2021/09/28 00:33:53;;;;;;;3.17;1.27;;;16.90;99.90;;;;;;5053151;28;20177;-59
2021/09/28 00:36:22;;;;;;;1.30;1.00;;;16.90;99.90;;;;;;5053122;28;20174;-59
2021/09/28 00:38:48;;;;;;;1.80;0.93;;;16.70;99.90;;;;;;5053251;28;20202;-59
2021/09/28 00:41:14;;;;;;;1.27;0.83;;;16.40;99.90;;;;;;5068523;28;20427;-59
2021/09/28 00:43:47;;;;;;;2.07;1.13;;;16.40;99.90;;;;;;5053366;28;20447;-59
2021/09/28 00:46:13;;;;;;;1.27;0.90;;;16.30;99.90;;;;;;5052643;28;20403;-58
2021/09/28 00:48:38;;;;;;;1.30;0.80;;;16.20;99.90;;;;;;5053384;28;20754;-58
2021/09/28 00:51:04;;;;;;;1.77;1.03;;;16.10;99.90;;;;;;5053678;28;20264;-55
2021/09/28 00:53:31;;;;;;;3.00;1.10;;;16.10;99.90;;;;;;5053094;28;20252;-54
2021/09/28 00:55:57;;;;;;;4.40;1.00;;;16.10;99.90;;;;;;5053196;28;20166;-58
2021/09/28 00:58:23;;;;;;;1.20;0.87;;;16.10;99.90;;;;;;5053107;28;20454;-58
2021/09/28 01:00:50;;;;;;;3.47;1.03;;;15.90;99.90;;;;;;5067558;28;20876;-57
2021/09/28 01:03:17;;;;;;;3.57;1.00;;;15.80;99.90;;;;;;5053411;28;20709;-57
2021/09/28 01:05:43;;;;;;;2.73;1.43;;;15.80;99.90;;;;;;5052834;28;20816;-57
2021/09/28 01:08:09;;;;;;;1.83;0.97;;;15.70;99.90;;;;;;5052832;28;20456;-58
2021/09/28 01:10:36;;;;;;;2.77;1.00;;;15.70;99.90;;;;;;5052668;28;20267;-56
2021/09/28 01:13:01;;;;;;;2.00;1.07;;;15.70;99.90;;;;;;5053056;28;20168;-57
2021/09/28 01:15:27;;;;;;;2.10;1.30;;;15.80;99.90;;;;;;5052493;28;20406;-58
2021/09/28 01:17:52;;;;;;;2.43;0.90;;;15.60;99.90;;;;;;5052680;28;20670;-57
2021/09/28 01:20:18;;;;;;;1.80;1.40;;;15.60;99.90;;;;;;5052836;28;20197;-55
2021/09/28 01:22:44;;;;;;;1.93;1.30;;;15.60;99.90;;;;;;5052724;28;20756;-55
2021/09/28 01:25:10;;;;;;;3.93;1.60;;;15.50;99.90;;;;;;5052717;28;20593;-57
2021/09/28 01:27:37;;;;;;;2.30;1.10;;;15.50;99.90;;;;;;5052967;28;20173;-58
2021/09/28 01:30:08;;;;;;;2.97;1.20;;;15.60;99.90;;;;;;5052568;28;20513;-57
2021/09/28 01:32:34;;;;;;;1.83;0.90;;;15.60;99.90;;;;;;5052439;28;20417;-56
2021/09/28 01:35:00;;;;;;;1.67;1.47;;;15.50;99.90;;;;;;5054856;28;20419;-57
2021/09/28 01:37:26;;;;;;;2.70;1.33;;;15.60;99.90;;;;;;5056469;28;20620;-57
2021/09/28 01:39:52;;;;;;;2.40;0.93;;;15.60;99.90;;;;;;5056445;28;20436;-54
2021/09/28 01:42:18;;;;;;;1.97;0.93;;;15.70;99.90;;;;;;5056729;28;20171;-55
2021/09/28 01:44:43;;;;;;;3.80;1.07;;;15.60;99.90;;;;;;5056535;28;20410;-58
2021/09/28 01:47:09;;;;;;;5.00;1.50;;;15.50;99.90;;;;;;5055854;28;20245;-56
2021/09/28 01:49:35;;;;;;;5.70;1.40;;;15.60;99.90;;;;;;5056092;28;20179;-57
2021/09/28 01:52:01;;;;;;;1.53;1.07;;;15.60;99.90;;;;;;5056371;28;20170;-56
2021/09/28 01:54:27;;;;;;;3.23;1.20;;;15.70;99.90;;;;;;5056177;28;20415;-59
2021/09/28 01:56:53;;;;;;;1.63;1.10;;;15.90;99.90;;;;;;5056371;28;20869;-59
2021/09/28 01:59:18;;;;;;;1.33;0.80;;;16.10;99.90;;;;;;5056063;28;20519;-57
2021/09/28 02:01:44;;;;;;;5.23;1.30;;;16.00;99.90;;;;;;5041674;28;20582;-58
2021/09/28 02:04:10;;;;;;;3.50;1.17;;;15.90;99.90;;;;;;5016270;28;20173;-55
2021/09/28 02:06:44;;;;;;;2.37;0.90;;;16.10;99.90;;;;;;5016561;28;20227;-58
2021/09/28 02:09:10;;;;;;;2.47;1.10;;;16.20;99.90;;;;;;5021045;28;20627;-55
2021/09/28 02:11:37;;;;;;;1.80;0.90;;;16.30;99.90;;;;;;5019226;28;20476;-57
2021/09/28 02:14:04;;;;;;;2.60;1.17;;;16.10;99.90;;;;;;5018760;28;20850;-56
2021/09/28 02:16:30;;;;;;;2.27;1.33;;;16.00;99.90;;;;;;5017996;28;20416;-57
2021/09/28 02:18:55;;;;;;;3.37;1.20;;;16.00;99.90;;;;;;5016862;28;20462;-57
2021/09/28 02:21:21;;;;;;;2.10;0.80;;;15.90;99.90;;;;;;5015969;28;20276;-56
2021/09/28 02:23:47;;;;;;;4.00;1.30;;;15.90;99.90;;;;;;5016271;28;20183;-54
2021/09/28 02:26:12;;;;;;;1.27;0.90;;;16.00;99.90;;;;;;5015763;28;20168;-53
2021/09/28 02:28:38;;;;;;;4.17;1.13;;;16.10;99.90;;;;;;5016174;28;20184;-53
2021/09/28 02:31:04;;;;;;;4.73;1.43;;;16.10;99.90;;;;;;5041213;28;20586;-56
2021/09/28 02:33:29;;;;;;;2.20;1.20;;;16.20;99.90;;;;;;5055313;28;20175;-53
2021/09/28 02:35:55;;;;;;;1.67;1.27;;;16.10;99.90;;;;;;5055361;28;20422;-53
2021/09/28 02:38:20;;;;;;;4.13;1.70;;;16.20;99.90;;;;;;5055167;28;20244;-55
2021/09/28 02:40:46;;;;;;;2.30;1.20;;;16.20;99.90;;;;;;5055187;28;20193;-56
2021/09/28 02:43:13;;;;;;;2.97;1.00;;;16.20;99.90;;;;;;5055320;28;20168;-52
2021/09/28 02:45:40;;;;;;;2.50;1.03;;;16.20;99.90;;;;;;5052219;28;20187;-56
2021/09/28 02:48:06;;;;;;;1.60;1.10;;;16.30;99.90;;;;;;5070497;28;20798;-53
2021/09/28 02:50:33;;;;;;;2.13;1.03;;;16.20;99.90;;;;;;5054978;28;20431;-53
2021/09/28 02:53:01;;;;;;;2.57;1.20;;;16.20;99.90;;;;;;5055228;28;20207;-52
2021/09/28 02:55:27;;;;;;;2.80;1.27;;;16.30;99.90;;;;;;5055259;28;20410;-54
2021/09/28 02:57:52;;;;;;;3.17;1.60;;;16.30;99.90;;;;;;5055073;28;20480;-54
2021/09/28 03:00:18;;;;;;;2.30;1.30;;;16.20;99.90;;;;;;5054451;28;20217;-53
2021/09/28 03:02:43;;;;;;;1.57;1.00;;;16.30;99.90;;;;;;5054570;28;20182;-56
2021/09/28 03:05:09;;;;;;;3.30;1.00;;;16.20;99.90;;;;;;5054757;28;20258;-56
2021/09/28 03:07:35;;;;;;;2.63;1.33;;;16.20;99.90;;;;;;5053002;28;20227;-55
2021/09/28 03:10:00;;;;;;;2.20;1.00;;;16.20;99.90;;;;;;5055429;28;20437;-53
2021/09/28 03:12:26;;;;;;;2.87;1.13;;;16.20;99.90;;;;;;5043285;28;20183;-55
2021/09/28 03:14:52;;;;;;;2.90;1.00;;;16.10;99.90;;;;;;5025823;28;20589;-53
2021/09/28 03:17:17;;;;;;;2.60;1.20;;;16.00;99.90;;;;;;5034537;28;20197;-55
2021/09/28 03:19:43;;;;;;;3.60;1.13;;;16.00;99.90;;;;;;5034747;28;20211;-58
2021/09/28 03:22:08;;;;;;;1.77;1.00;;;16.10;99.90;;;;;;5049204;28;20184;-55
2021/09/28 03:24:34;;;;;;;4.17;1.80;;;16.00;99.90;;;;;;5054667;28;20637;-58
2021/09/28 03:26:59;;;;;;;2.77;1.63;;;15.90;99.90;;;;;;5054593;28;20251;-55
2021/09/28 03:29:25;;;;;;;3.00;1.40;;;15.90;99.90;;;;;;5054287;28;20170;-55
2021/09/28 03:31:51;;;;;;;2.13;1.63;;;15.80;99.90;;;;;;5054717;28;20639;-56
2021/09/28 03:34:16;;;;;;;2.70;1.30;;;15.80;99.90;;;;;;5054207;28;20172;-56
2021/09/28 03:36:42;;;;;;;3.80;1.60;;;15.90;99.90;;;;;;5053968;28;20655;-54
2021/09/28 03:39:07;;;;;;;5.10;1.33;;;15.80;99.90;;;;;;5053887;28;20175;-54
2021/09/28 03:41:33;;;;;;;1.73;1.27;;;15.80;99.90;;;;;;5053989;28;20189;-57
2021/09/28 03:43:59;;;;;;;4.90;1.40;;;15.70;99.90;;;;;;5054067;28;20176;-56
2021/09/28 03:46:24;;;;;;;2.60;1.03;;;15.70;99.90;;;;;;5054017;28;20253;-53
2021/09/28 03:48:50;;;;;;;3.30;1.50;;;15.60;99.90;;;;;;5054291;28;20605;-58
2021/09/28 03:51:16;;;;;;;4.80;1.40;;;15.50;99.90;;;;;;5053750;28;20203;-56
2021/09/28 03:53:42;;;;;;;3.10;1.40;;;15.60;99.90;;;;;;5052332;28;20237;-57
2021/09/28 03:56:07;;;;;;;2.37;1.33;;;15.40;99.90;;;;;;5054452;28;20556;-57
2021/09/28 03:58:33;;;;;;;1.67;1.10;;;15.50;99.90;;;;;;5024446;28;21126;-57
2021/09/28 04:00:58;;;;;;;1.70;1.47;;;15.70;99.90;;;;;;5030118;23;20245;-58
2021/09/28 04:03:24;;;;;;;4.40;1.70;;;15.60;99.90;;;;;;4992896;28;20209;-58
2021/09/28 04:05:50;;;;;;;2.47;1.40;;;15.50;99.90;;;;;;4993870;28;20203;-59
2021/09/28 04:08:15;;;;;;;5.13;2.10;;;15.40;99.90;;;;;;4993888;28;20225;-60
2021/09/28 04:10:41;;;;;;;3.90;1.80;;;15.30;99.90;;;;;;4993934;28;20765;-60
2021/09/28 04:13:08;;;;;;;2.03;1.30;;;15.20;99.90;;;;;;4994058;28;20252;-60
2021/09/28 04:15:41;;;;;;;3.43;1.33;;;14.90;99.90;;;;;;4993854;28;20181;-60
2021/09/28 04:18:09;;;;;;;2.33;1.80;;;14.80;99.90;;;;;;4993699;28;20979;-60
2021/09/28 04:20:37;;;;;;;3.63;1.67;;;14.80;99.90;;;;;;4994056;28;20514;-60
2021/09/28 04:23:04;;;;;;;3.50;1.43;;;14.70;99.90;;;;;;4994236;28;20489;-60
2021/09/28 04:25:31;;;;;;;3.77;1.47;;;14.80;99.90;;;;;;4993963;28;20514;-60
2021/09/28 04:27:56;;;;;;;3.63;1.17;;;14.80;99.90;;;;;;4993923;28;20770;-60
2021/09/28 04:30:22;;;;;;;3.20;1.73;;;14.70;99.90;;;;;;4993426;28;20430;-60
2021/09/28 04:32:48;;;;;;;2.43;1.13;;;14.60;99.90;;;;;;4993565;28;20214;-58
2021/09/28 04:35:13;;;;;;;1.47;1.37;;;14.60;99.90;;;;;;4993889;28;20213;-60
2021/09/28 04:37:39;;;;;;;1.80;1.30;;;14.60;99.90;;;;;;4993839;28;20210;-60
2021/09/28 04:40:05;;;;;;;3.20;1.43;;;14.50;99.90;;;;;;4993621;28;20180;-58
2021/09/28 04:42:31;;;;;;;3.30;1.53;;;14.60;99.90;;;;;;4993346;28;20408;-60
2021/09/28 04:44:56;;;;;;;3.27;1.60;;;14.60;99.90;;;;;;4992729;28;20450;-59
2021/09/28 04:47:22;;;;;;;3.10;1.80;;;14.60;99.90;;;;;;4993052;28;20169;-59
2021/09/28 04:49:48;;;;;;;3.30;2.17;;;14.60;99.90;;;;;;4993721;28;20763;-59
2021/09/28 04:52:13;;;;;;;2.60;1.50;;;14.30;99.90;;;;;;4993339;28;20200;-59
2021/09/28 04:54:39;;;;;;;2.17;1.47;;;14.00;99.90;;;;;;4993671;28;20181;-60
2021/09/28 04:57:05;;;;;;;2.13;1.90;;;14.00;99.90;;;;;;4993346;28;20263;-60
2021/09/28 04:59:32;;;;;;;5.77;2.87;;;14.10;99.90;;;;;;4993346;28;20739;-59
2021/09/28 05:01:58;;;;;;;3.87;2.97;;;14.20;99.90;;;;;;4992692;28;20219;-59
2021/09/28 05:04:23;;;;;;;3.37;2.90;;;14.20;99.90;;;;;;4993283;28;20850;-59
2021/09/28 05:06:49;;;;;;;3.73;1.80;;;14.00;99.90;;;;;;4993448;28;20647;-59
2021/09/28 05:09:14;;;;;;;2.63;1.93;;;14.10;99.90;;;;;;4994572;28;20661;-60
2021/09/28 05:11:40;;;;;;;4.00;2.17;;;14.10;99.90;;;;;;4997260;28;20197;-60
2021/09/28 05:14:06;;;;;;;3.27;1.97;;;14.00;99.90;;;;;;4997160;28;20240;-60
2021/09/28 05:16:32;;;;;;;2.87;1.70;;;14.00;99.90;;;;;;4996638;28;20516;-60
2021/09/28 05:18:57;;;;;;;5.60;1.93;;;14.00;99.90;;;;;;4996752;28;20331;-59
2021/09/28 05:21:23;;;;;;;3.57;2.17;;;14.00;99.90;;;;;;4996773;28;20528;-60
2021/09/28 05:23:49;;;;;;;4.00;2.10;;;14.00;99.90;;;;;;4996996;28;20728;-60
2021/09/28 05:26:16;;;;;;;4.67;2.07;;;13.90;99.90;;;;;;4996092;28;20449;-58
2021/09/28 05:28:42;;;;;;;5.03;2.60;;;13.80;99.90;;;;;;4997466;28;20465;-60
2021/09/28 05:31:08;;;;;;;5.20;2.73;;;13.90;99.90;;;;;;4996421;28;20435;-59
2021/09/28 05:33:34;;;;;;;2.97;2.23;;;13.80;99.90;;;;;;4996626;28;20501;-60
2021/09/28 05:35:59;;;;;;;4.10;2.43;;;13.90;99.90;;;;;;4996552;28;20491;-60
2021/09/28 05:38:25;;;;;;;5.30;2.53;;;13.90;99.90;;;;;;4996741;28;20202;-60
2021/09/28 05:40:51;;;;;;;3.60;2.70;;;13.90;99.90;;;;;;4996726;28;20674;-61
2021/09/28 05:43:17;;;;;;;4.37;2.90;;;13.90;99.90;;;;;;4996521;28;20419;-60
2021/09/28 05:45:42;;;;;;;3.23;2.53;;;13.90;99.90;;;;;;4996225;28;20564;-60
2021/09/28 05:48:08;;;;;;;6.03;2.60;;;13.90;99.90;;;;;;4996302;28;20256;-60
2021/09/28 05:50:35;;;;;;;3.60;2.20;;;13.90;99.90;;;;;;4989934;28;20694;-58
2021/09/28 05:53:07;;;;;;;7.07;2.93;;;13.90;99.90;;;;;;4977060;28;20624;-61
2021/09/28 05:55:33;;;;;;;4.50;3.10;;;13.90;99.90;;;;;;4976999;28;20399;-61
2021/09/28 05:57:59;;;;;;;4.20;3.33;;;13.90;99.90;;;;;;4990977;28;20459;-60
2021/09/28 06:00:25;;;;;;;5.20;3.17;;;13.80;99.90;;;;;;4995820;28;20466;-58
2021/09/28 06:02:50;;;;;;;3.40;2.20;;;13.70;99.90;;;;;;4996140;28;20167;-60
2021/09/28 06:05:16;;;;;;;3.70;2.50;;;13.70;99.90;;;;;;4993186;28;20173;-60
2021/09/28 06:07:42;;;;;;;3.03;2.20;;;13.60;99.90;;;;;;4987610;28;20241;-60
2021/09/28 06:10:07;;;;;;;4.07;2.87;;;13.70;99.90;;;;;;4996334;28;20167;-60
2021/09/28 06:12:33;;;;;;;7.23;2.70;;;13.70;99.90;;;;;;4995954;28;20196;-60
2021/09/28 06:14:59;;;;;;;3.13;2.10;;;13.70;99.90;;;;;;4995851;28;20412;-60
2021/09/28 06:17:25;;;;;;;6.03;2.60;;;13.70;99.90;;;;;;4984225;28;20543;-60
2021/09/28 06:19:50;;;;;;;6.43;4.10;;;13.70;99.90;;;;;;4993820;28;20247;-61
2021/09/28 06:22:16;;;;;;;9.37;3.47;;;13.70;99.90;;;;;;4994818;28;20425;-60
2021/09/28 06:24:41;;;;;;;6.80;2.93;;;13.90;99.90;;;;;;4994454;28;20673;-60
2021/09/28 06:27:08;;;;;;;4.40;2.30;;;13.90;99.90;;;;;;4995514;28;20187;-60
2021/09/28 06:29:35;;;;;;;3.87;2.63;;;14.00;99.90;;;;;;4995414;28;20231;-60
2021/09/28 06:32:02;;;;;;;4.20;2.67;;;14.10;99.90;;;;;;4994159;28;20471;-60
2021/09/28 06:34:27;;;;;;;3.63;3.07;;;14.30;99.90;;;;;;4994895;28;20423;-60
2021/09/28 06:36:53;;;;;;;6.20;3.70;;;14.40;99.90;;;;;;4995625;28;20432;-60
2021/09/28 06:39:19;;;;;;;5.73;2.97;;;14.50;99.90;;;;;;4995457;28;20181;-59
2021/09/28 06:41:45;;;;;;;7.57;3.13;;;14.60;99.90;;;;;;4995355;28;20203;-60
2021/09/28 06:44:10;;;;;;;3.23;2.50;;;14.60;99.90;;;;;;4995397;28;20405;-60
2021/09/28 06:46:36;;;;;;;3.60;2.60;;;14.60;99.90;;;;;;4994488;28;20181;-60
2021/09/28 06:49:02;;;;;;;4.00;2.60;;;14.70;99.90;;;;;;4994713;28;20571;-60
2021/09/28 06:51:28;;;;;;;6.80;2.90;;;14.90;99.90;;;;;;4995452;28;20208;-60
2021/09/28 06:53:54;;;;;;;10.40;5.20;;;15.00;99.90;;;;;;4995221;28;20407;-60
2021/09/28 06:56:21;;;;;;;5.70;3.63;;;15.00;99.90;;;;;;4994912;28;20413;-61
2021/09/28 06:58:47;;;;;;;9.27;4.30;;;14.90;99.90;;;;;;4995172;28;20220;-58
2021/09/28 07:01:13;;;;;;;5.70;4.03;;;15.10;99.90;;;;;;4994727;28;20541;-59
2021/09/28 07:03:39;;;;;;;7.40;3.90;;;15.30;99.90;;;;;;4994232;28;20504;-60
2021/09/28 07:06:05;;;;;;;4.53;2.90;;;15.50;99.90;;;;;;4994668;28;20177;-59
2021/09/28 07:08:31;;;;;;;6.00;4.37;;;15.50;99.90;;;;;;4994729;28;20870;-59
2021/09/28 07:10:57;;;;;;;7.00;4.33;;;15.30;99.90;;;;;;4994397;28;20481;-60
2021/09/28 07:13:23;;;;;;;6.47;4.60;;;15.50;99.90;;;;;;4995165;28;20418;-60
2021/09/28 07:15:49;;;;;;;5.40;4.10;;;15.60;99.90;;;;;;4994711;28;20667;-60
2021/09/28 07:18:14;;;;;;;7.20;4.20;;;15.90;99.90;;;;;;4994360;28;20205;-60
2021/09/28 07:20:40;;;;;;;8.90;6.80;;;16.00;99.90;;;;;;4994577;28;20434;-60
2021/09/28 07:23:06;;;;;;;9.67;5.67;;;16.10;99.90;;;;;;4994364;28;20258;-60
2021/09/28 07:25:32;;;;;;;7.50;5.93;;;16.20;99.90;;;;;;4994912;28;20440;-60
2021/09/28 07:28:00;;;;;;;9.60;5.97;;;15.90;99.90;;;;;;4994717;28;20170;-60
2021/09/28 07:30:27;;;;;;;4.97;4.53;;;15.80;99.90;;;;;;4994678;28;20297;-60
2021/09/28 07:32:53;;;;;;;8.73;5.43;;;16.10;99.90;;;;;;4993563;28;20541;-60
2021/09/28 07:35:18;;;;;;;7.80;5.70;;;16.40;99.90;;;;;;4994557;28;20435;-60
2021/09/28 07:37:44;;;;;;;5.70;5.17;;;16.40;99.90;;;;;;4994137;28;20231;-60
2021/09/28 07:40:10;;;;;;;7.77;4.93;;;16.30;99.90;;;;;;4994311;28;20185;-60
2021/09/28 07:42:36;;;;;;;5.77;4.80;;;16.10;99.90;;;;;;4995174;28;20264;-58
2021/09/28 07:45:03;;;;;;;7.67;4.80;;;16.00;99.90;;;;;;4994569;28;20462;-61
2021/09/28 07:47:30;;;;;;;7.60;5.47;;;16.10;99.90;;;;;;4994592;28;20432;-60
2021/09/28 07:49:56;;;;;;;8.30;6.17;;;16.00;99.90;;;;;;4992818;28;20407;-61
2021/09/28 07:52:21;;;;;;;7.77;5.30;;;16.10;99.90;;;;;;4994680;28;20417;-61
2021/09/28 07:54:47;;;;;;;7.03;5.27;;;16.10;99.90;;;;;;4993811;28;20265;-60
2021/09/28 07:57:12;;;;;;;9.37;5.67;;;16.10;99.90;;;;;;4987053;28;20688;-60
2021/09/28 07:59:38;;;;;;;7.50;6.07;;;16.00;99.90;;;;;;4974961;28;20501;-60
2021/09/28 08:02:05;;;;;;;9.67;5.40;;;16.10;99.90;;;;;;4975500;28;20199;-60
2021/09/28 08:04:31;;;;;;;9.40;5.53;;;16.10;99.90;;;;;;4993218;28;20425;-61
2021/09/28 08:06:57;;;;;;;10.43;6.30;;;16.00;99.90;;;;;;4993978;28;20409;-61
2021/09/28 08:09:23;;;;;;;10.00;6.43;;;15.90;99.90;;;;;;4994633;28;20402;-59
2021/09/28 08:11:48;;;;;;;6.43;5.73;;;15.90;99.90;;;;;;4993714;28;20194;-60
2021/09/28 08:14:14;;;;;;;7.77;6.87;;;15.80;99.90;;;;;;4994027;28;20187;-59
2021/09/28 08:16:40;;;;;;;9.90;6.43;;;15.90;99.90;;;;;;4993853;28;20185;-60
2021/09/28 08:19:06;;;;;;;8.17;7.00;;;15.90;99.90;;;;;;4993131;28;20228;-60
2021/09/28 08:21:32;;;;;;;7.73;5.60;;;16.00;99.90;;;;;;4994051;28;20786;-60
2021/09/28 08:23:58;;;;;;;7.20;6.50;;;16.10;99.90;;;;;;4993829;28;20410;-60
2021/09/28 08:29:10;;;;;;;6.63;5.73;;;16.60;99.90;;;;;;4994101;28;21000;-60
2021/09/28 08:31:44;;;;;;;6.67;6.07;;;16.70;99.90;;;;;;4993757;28;20436;-60
2021/09/28 08:34:11;;;;;;;5.00;3.53;;;16.90;99.90;;;;;;4993460;28;20433;-60
2021/09/28 08:36:37;;;;;;;5.63;3.40;;;16.90;99.90;;;;;;4993470;28;20408;-60
2021/09/28 08:39:11;;;;;;;6.00;3.77;;;16.90;99.90;;;;;;4993317;28;20474;-60
2021/09/28 08:41:38;;;;;;;9.67;4.57;;;16.70;99.90;;;;;;4993545;28;20513;-60
2021/09/28 08:44:04;;;;;;;8.07;5.37;;;16.70;99.90;;;;;;4993357;28;20407;-60
2021/09/28 08:46:29;;;;;;;6.70;5.27;;;16.80;99.90;;;;;;4993550;28;20478;-60
2021/09/28 08:48:55;;;;;;;8.77;7.30;;;17.10;99.90;;;;;;4993012;28;20238;-60
2021/09/28 08:51:21;;;;;;;7.33;6.60;;;16.90;99.90;;;;;;4993415;28;20191;-60
2021/09/28 08:53:49;;;;;;;9.80;6.10;;;16.70;99.90;;;;;;4993682;28;20173;-60
2021/09/28 08:56:16;;;;;;;6.57;5.80;;;17.20;99.90;;;;;;4993588;28;20183;-60
2021/09/28 08:59:05;;;;;;;11.73;7.00;;;17.40;99.90;;;;;;4993434;28;20452;-60
2021/09/28 09:01:32;;;;;;;8.60;6.13;;;17.10;99.90;;;;;;4993120;28;20480;-57
2021/09/28 09:04:18;;;;;;;7.23;6.00;;;17.20;99.90;;;;;;4992751;28;20512;-60
2021/09/28 09:06:45;;;;;;;15.83;6.50;;;17.20;99.90;;;;;;4993613;28;20408;-61
2021/09/28 09:09:12;;;;;;;7.10;5.57;;;16.80;99.90;;;;;;4989890;28;20486;-61
2021/09/28 09:11:41;;;;;;;9.70;5.80;;;16.60;99.90;;;;;;4984731;28;20444;-60
2021/09/28 09:14:16;;;;;;;6.30;4.70;;;16.60;99.90;;;;;;4993707;28;20507;-62
2021/09/28 09:16:44;;;;;;;8.03;6.13;;;16.90;99.90;;;;;;4993310;28;20407;-58
2021/09/28 09:19:13;;;;;;;7.03;5.77;;;16.80;99.90;;;;;;4992701;28;20542;-59
2021/09/28 09:21:48;;;;;;;9.10;6.17;;;16.90;99.90;;;;;;4993157;28;20433;-60
2021/09/28 09:24:40;;;;;;;8.03;5.90;;;16.90;99.90;;;;;;4992896;28;20416;-60
2021/09/28 09:27:06;;;;;;;4.90;4.50;;;16.70;99.90;;;;;;4993099;28;20415;-60
2021/09/28 09:29:33;;;;;;;7.23;5.30;;;17.10;99.90;;;;;;4993728;28;20404;-60
2021/09/28 09:31:59;;;;;;;6.23;5.03;;;17.30;99.90;;;;;;4993141;28;20192;-61
2021/09/28 09:34:26;;;;;;;6.73;5.03;;;17.40;99.90;;;;;;4992421;28;20498;-61
2021/09/28 09:36:53;;;;;;;7.50;4.57;;;17.70;99.90;;;;;;4993130;28;20232;-60
2021/09/28 09:39:20;;;;;;;6.27;5.60;;;17.40;99.90;;;;;;4992831;28;20979;-60
2021/09/28 09:41:47;;;;;;;6.80;4.50;;;17.50;99.90;;;;;;4993057;28;20829;-60
2021/09/28 09:44:16;;;;;;;6.83;3.50;;;17.70;99.90;;;;;;4993076;28;20410;-61
2021/09/28 09:46:44;;;;;;;4.87;3.93;;;17.90;99.90;;;;;;4992860;28;20396;-61
2021/09/28 09:49:11;;;;;;;11.40;4.17;;;17.70;99.90;;;;;;4992707;28;20404;-61
2021/09/28 09:51:49;;;;;;;4.27;3.70;;;17.90;99.90;;;;;;4992904;28;20465;-60
2021/09/28 09:54:16;;;;;;;5.23;4.00;;;18.20;99.90;;;;;;4993176;28;20391;-60
2021/09/28 09:56:42;;;;;;;6.10;4.03;;;18.00;99.90;;;;;;4996352;28;20412;-61
2021/09/28 09:59:08;;;;;;;9.87;5.80;;;18.20;99.90;;;;;;4996219;28;20451;-61
2021/09/28 10:01:37;;;;;;;7.10;4.17;;;18.30;99.90;;;;;;5057032;22;20484;-56
2021/09/28 10:04:09;;;;;;;6.80;4.47;;;18.30;99.90;;;;;;5075663;28;20206;-51
2021/09/28 10:06:35;;;;;;;7.43;4.27;;;18.40;99.90;;;;;;5062863;28;20812;-58
2021/09/28 10:09:04;;;;;;;6.40;3.97;;;18.50;99.90;;;;;;5055666;28;20493;-57
2021/09/28 10:11:34;;;;;;;8.77;4.40;;;18.10;99.90;;;;;;5046885;28;20930;-57
2021/09/28 10:14:00;;;;;;;4.40;3.50;;;18.00;99.90;;;;;;5035808;28;20440;-56
2021/09/28 10:16:42;;;;;;;7.33;3.73;;;18.30;99.90;;;;;;5035667;28;21009;-57
2021/09/28 10:19:26;;;;;;;7.30;5.33;;;18.10;99.90;;;;;;5035659;28;20719;-58
2021/09/28 10:21:53;;;;;;;5.10;4.60;;;17.70;99.90;;;;;;5035822;28;20429;-57
2021/09/28 10:24:26;;;;;;;7.00;4.17;;;17.80;99.90;;;;;;5036054;28;20970;-57
2021/09/28 10:27:00;;;;;;;8.07;4.30;;;17.90;99.90;;;;;;5035659;28;20382;-57
2021/09/28 10:29:47;;;;;;;4.20;3.80;;;18.00;99.90;;;;;;5035597;28;20394;-55
2021/09/28 10:32:25;;;;;;;8.27;4.20;;;18.30;99.90;;;;;;5048742;28;20855;-58
2021/09/28 10:35:06;;;;;;;6.33;3.90;;;18.30;99.90;;;;;;5055211;28;20401;-59
2021/09/28 10:37:53;;;;;;;5.53;3.70;;;18.00;99.90;;;;;;5055367;28;20447;-58
2021/09/28 10:40:21;;;;;;;3.33;2.87;;;18.10;99.90;;;;;;5055138;28;20397;-58
2021/09/28 10:43:01;;;;;;;7.23;3.50;;;18.30;99.90;;;;;;5055187;28;20413;-58
2021/09/28 10:45:29;;;;;;;5.43;3.57;;;18.40;99.90;;;;;;5055906;28;20473;-52
2021/09/28 10:48:00;;;;;;;3.53;2.67;;;18.70;99.90;;;;;;5054650;28;20398;-57
2021/09/28 10:50:40;;;;;;;6.03;3.37;;;18.90;99.90;;;;;;5055245;28;20959;-57
2021/09/28 10:53:08;;;;;;;7.07;3.40;;;18.50;99.90;;;;;;5055447;28;20802;-57
2021/09/28 10:55:40;;;;;;;3.87;2.77;;;18.80;99.90;;;;;;5053750;28;20446;-58
2021/09/28 10:58:14;;;;;;;6.17;3.13;;;18.80;99.90;;;;;;5055192;28;20519;-58
2021/09/28 11:00:40;;;;;;;6.57;2.93;;;19.20;99.90;;;;;;5054755;28;20417;-54
2021/09/28 11:03:08;;;;;;;3.50;3.20;;;20.40;99.90;;;;;;5055063;28;20806;-59
2021/09/28 11:05:37;;;;;;;6.77;4.00;;;;;;;;;;5055457;28;20163;-58
2021/09/28 11:08:07;;;;;;;4.63;3.13;;;20.80;99.10;;;;;;5053702;28;20401;-58
2021/09/28 11:10:36;;;;;;;5.83;3.07;;;21.60;99.90;;;;;;5054834;28;20405;-59
2021/09/28 11:13:07;;;;;;;5.00;2.90;;;22.20;97.50;;;;;;5054993;28;20409;-59
2021/09/28 11:15:33;;;;;;;6.97;3.40;;;22.20;97.40;;;;;;5054788;28;20450;-57
2021/09/28 11:18:18;;;;;;;5.13;3.13;;;22.00;96.50;;;;;;5054375;28;20877;-58
2021/09/28 11:20:44;;;;;;;3.37;3.00;;;21.80;97.10;;;;;;5054354;28;20410;-57
2021/09/28 11:23:12;;;;;;;8.00;2.80;;;21.40;97.20;;;;;;5054599;28;20432;-58
2021/09/28 11:25:40;;;;;;;5.40;3.60;;;21.20;96.90;;;;;;5054337;28;20216;-59
2021/09/28 11:28:11;;;;;;;4.87;3.37;;;20.80;97.00;;;;;;5055195;28;20845;-59
2021/09/28 11:30:50;;;;;;;6.43;3.93;;;20.60;97.70;;;;;;5054776;28;20392;-57
2021/09/28 11:33:16;;;;;;;4.70;2.93;;;21.00;97.20;;;;;;5054385;28;20893;-55
2021/09/28 11:35:58;;;;;;;5.10;3.13;;;23.30;95.10;;;;;;5054354;28;20408;-56
2021/09/28 11:38:28;;;;;;;3.90;2.70;;;24.20;92.80;;;;;;5054508;28;20630;-57
2021/09/28 11:41:06;;;;;;;6.27;3.30;;;25.00;91.50;;;;;;5054294;28;20425;-55
2021/09/28 11:43:36;;;;;;;8.27;3.20;;;24.90;91.50;;;;;;5054517;28;20794;-52
2021/09/28 11:46:04;;;;;;;4.67;3.60;;;24.60;90.50;;;;;;5053958;28;20420;-56
2021/09/28 11:48:37;;;;;;;5.80;3.53;;;23.50;91.60;;;;;;5053811;28;20409;-54
2021/09/28 11:51:14;;;;;;;4.93;3.10;;;23.70;91.80;;;;;;5053684;28;20423;-54
2021/09/28 11:53:42;;;;;;;4.83;3.07;;;24.20;90.20;;;;;;5053756;28;20390;-54
2021/09/28 11:56:08;;;;;;;3.80;3.30;;;24.80;90.30;;;;;;5053645;28;20405;-55
2021/09/28 11:58:39;;;;;;;3.97;3.60;;;25.30;86.70;;;;;;5054112;28;20485;-54
2021/09/28 12:01:09;;;;;;;3.50;3.20;;;24.10;89.40;;;;;;5052851;28;20516;-55
2021/09/28 12:03:41;;;;;;;8.50;3.50;;;23.80;91.10;;;;;;5044843;28;20405;-54
2021/09/28 12:06:18;;;;;;;6.47;3.87;;;24.60;90.10;;;;;;5034384;28;20755;-56
2021/09/28 12:08:46;;;;;;;4.60;4.07;;;24.50;88.80;;;;;;5034089;28;20416;-54
2021/09/28 12:11:12;;;;;;;5.30;4.40;;;24.50;88.60;;;;;;5036605;28;20942;-57
2021/09/28 12:13:46;;;;;;;6.27;4.00;;;24.40;87.90;;;;;;5034680;28;20457;-57
2021/09/28 12:16:15;;;;;;;5.20;3.97;;;24.20;89.30;;;;;;5034777;28;20490;-58
2021/09/28 12:18:41;;;;;;;4.67;3.67;;;23.40;90.10;;;;;;5033605;28;20461;-57
2021/09/28 12:21:13;;;;;;;3.93;3.20;;;22.70;90.60;;;;;;5034118;28;20552;-56
2021/09/28 12:23:39;;;;;;;5.13;3.37;;;22.70;90.90;;;;;;5033450;28;20414;-57
2021/09/28 12:26:20;;;;;;;4.80;3.60;;;23.60;90.10;;;;;;5032377;28;20796;-58
2021/09/28 12:28:46;;;;;;;3.70;3.20;;;24.20;87.90;;;;;;5033835;28;20160;-59
2021/09/28 12:31:11;;;;;;;4.60;4.10;;;23.20;89.20;;;;;;5038255;28;20824;-58
2021/09/28 12:33:40;;;;;;;5.20;4.03;;;23.90;90.40;;;;;;5053715;28;20235;-58
2021/09/28 12:36:05;;;;;;;4.33;3.80;;;25.40;87.30;;;;;;5054205;28;20163;-59
2021/09/28 12:38:31;;;;;;;4.20;3.80;;;26.70;84.30;;;;;;5053166;28;20455;-59
2021/09/28 12:41:08;;;;;;;3.70;3.33;;;27.20;80.70;;;;;;5054065;28;20178;-57
2021/09/28 12:43:35;;;;;;;7.70;3.67;;;26.00;81.80;;;;;;5054464;28;20154;-58
2021/09/28 12:46:04;;;;;;;5.43;3.73;;;26.80;81.10;;;;;;5056445;28;20775;-55
2021/09/28 12:48:41;;;;;;;6.47;4.60;;;27.00;80.80;;;;;;5056326;28;20401;-57
2021/09/28 12:51:15;;;;;;;6.23;5.30;;;26.90;81.50;;;;;;5054478;28;20474;-56
2021/09/28 12:53:41;;;;;;;6.93;5.40;;;25.50;82.50;;;;;;5053848;28;20416;-57